createdAt,value
2023-03-26T00:01:25.035Z,8.52
2023-03-26T00:03:55.232Z,8.41
2023-03-26T00:06:24.502Z,8.46
2023-03-26T00:08:52.596Z,8.44
2023-03-26T00:11:21.590Z,8.41
2023-03-26T00:13:48.578Z,8.40
2023-03-26T00:16:17.924Z,8.42
2023-03-26T00:18:44.635Z,8.43
2023-03-26T00:21:14.881Z,8.46
2023-03-26T00:23:42.356Z,8.46
2023-03-26T00:26:10.762Z,8.45
2023-03-26T00:28:42.230Z,8.49
2023-03-26T00:31:14.803Z,8.47
2023-03-26T00:33:41.930Z,8.52
2023-03-26T00:36:11.958Z,8.54
2023-03-26T00:38:39.274Z,8.57
2023-03-26T00:41:17.553Z,8.48
2023-03-26T00:43:46.654Z,8.55
2023-03-26T00:46:13.263Z,8.39
2023-03-26T00:48:45.510Z,8.39
2023-03-26T00:51:17.469Z,8.36
2023-03-26T00:53:46.263Z,8.36
2023-03-26T00:56:13.247Z,8.36
2023-03-26T00:58:40.258Z,8.28
2023-03-26T01:01:10.551Z,8.28
2023-03-26T01:03:38.644Z,8.29
2023-03-26T01:06:12.779Z,8.27
2023-03-26T01:08:50.415Z,8.34
2023-03-26T01:11:16.882Z,8.29
2023-03-26T01:13:47.762Z,8.32
2023-03-26T01:16:23.323Z,8.29
2023-03-26T01:18:52.682Z,8.30
2023-03-26T01:21:22.628Z,8.18
2023-03-26T01:23:59.931Z,8.22
2023-03-26T01:26:44.129Z,8.17
2023-03-26T01:29:39.463Z,8.21
2023-03-26T01:32:37.714Z,8.14
2023-03-26T01:35:36.205Z,8.15
2023-03-26T01:38:24.528Z,8.15
2023-03-26T01:41:04.822Z,8.19
2023-03-26T01:43:44.097Z,8.17
2023-03-26T01:46:13.142Z,8.19
2023-03-26T01:48:41.368Z,8.18
2023-03-26T01:51:09.806Z,8.18
2023-03-26T01:53:43.866Z,8.15
2023-03-26T01:56:29.466Z,8.16
2023-03-26T01:58:58.869Z,8.18
2023-03-26T02:01:49.367Z,8.19
2023-03-26T02:04:54.523Z,8.17
2023-03-26T02:07:38.018Z,8.18
2023-03-26T02:10:27.781Z,8.11
2023-03-26T02:12:54.773Z,8.15
2023-03-26T02:15:21.566Z,8.15
2023-03-26T02:17:49.514Z,8.21
2023-03-26T02:21:06.273Z,8.21
2023-03-26T02:23:35.870Z,8.25
2023-03-26T02:26:06.472Z,8.24
2023-03-26T02:28:33.152Z,8.27
2023-03-26T02:31:01.826Z,8.21
2023-03-26T02:33:29.054Z,8.19
2023-03-26T02:35:59.381Z,8.21
2023-03-26T02:38:26.720Z,8.15
2023-03-26T02:40:54.479Z,8.18
2023-03-26T02:43:21.344Z,8.24
2023-03-26T02:45:47.944Z,8.18
2023-03-26T02:48:15.197Z,8.21
2023-03-26T02:50:42.490Z,8.19
2023-03-26T02:53:09.427Z,8.14
2023-03-26T02:55:35.975Z,8.15
2023-03-26T02:58:02.461Z,8.10
2023-03-26T03:00:29.057Z,8.05
2023-03-26T03:02:58.019Z,8.07
2023-03-26T03:05:28.865Z,8.05
2023-03-26T03:07:58.082Z,8.12
2023-03-26T03:10:26.301Z,8.11
2023-03-26T03:12:53.281Z,8.11
2023-03-26T03:15:20.470Z,7.99
2023-03-26T03:17:47.493Z,7.90
2023-03-26T03:20:14.094Z,7.82
2023-03-26T03:22:41.232Z,7.87
2023-03-26T03:25:17.478Z,7.87
2023-03-26T03:27:44.577Z,7.89
2023-03-26T03:30:13.290Z,7.86
2023-03-26T03:32:39.817Z,7.87
2023-03-26T03:35:07.404Z,7.82
2023-03-26T03:37:33.908Z,7.88
2023-03-26T03:40:00.365Z,7.90
2023-03-26T03:42:27.638Z,7.89
2023-03-26T03:44:54.271Z,7.93
2023-03-26T03:47:22.834Z,7.99
2023-03-26T03:49:50.009Z,8.03
2023-03-26T03:52:17.968Z,8.04
2023-03-26T03:54:44.523Z,8.03
2023-03-26T03:57:11.088Z,8.07
2023-03-26T03:59:37.561Z,8.05
2023-03-26T04:02:03.993Z,8.08
2023-03-26T04:04:30.654Z,7.93
2023-03-26T04:06:57.168Z,7.93
2023-03-26T04:09:23.638Z,7.95
2023-03-26T04:11:51.084Z,7.90
2023-03-26T04:14:17.559Z,7.89
2023-03-26T04:16:44.034Z,7.89
2023-03-26T04:19:10.477Z,7.90
2023-03-26T04:21:37.803Z,7.96
2023-03-26T04:24:05.286Z,7.92
2023-03-26T04:26:31.944Z,7.92
2023-03-26T04:29:05.639Z,7.94
2023-03-26T04:31:34.050Z,7.99
2023-03-26T04:34:07.607Z,8.06
2023-03-26T04:36:35.461Z,8.09
2023-03-26T04:39:05.001Z,8.06
2023-03-26T04:41:32.443Z,8.12
2023-03-26T04:44:01.797Z,8.12
2023-03-26T04:46:28.656Z,8.13
2023-03-26T04:48:55.573Z,8.11
2023-03-26T04:51:27.055Z,8.15
2023-03-26T04:54:07.176Z,8.17
2023-03-26T04:56:43.473Z,8.20
2023-03-26T04:59:30.427Z,8.22
2023-03-26T05:01:59.134Z,8.26
2023-03-26T05:04:26.664Z,8.24
2023-03-26T05:06:53.962Z,8.28
2023-03-26T05:09:20.623Z,8.27
2023-03-26T05:11:48.181Z,8.31
2023-03-26T05:14:14.654Z,8.27
2023-03-26T05:16:41.388Z,8.23
2023-03-26T05:19:08.947Z,8.24
2023-03-26T05:21:35.787Z,8.25
2023-03-26T05:24:02.598Z,8.20
2023-03-26T05:26:29.563Z,8.21
2023-03-26T05:28:56.846Z,8.22
2023-03-26T05:31:23.479Z,8.24
2023-03-26T05:33:50.210Z,8.17
2023-03-26T05:36:17.283Z,8.13
2023-03-26T05:38:47.751Z,8.16
2023-03-26T05:41:14.291Z,8.12
2023-03-26T05:43:41.391Z,8.19
2023-03-26T05:46:08.128Z,8.19
2023-03-26T05:48:34.950Z,8.16
2023-03-26T05:51:01.616Z,8.16
2023-03-26T05:53:28.232Z,8.17
2023-03-26T05:55:58.413Z,8.06
2023-03-26T05:58:26.717Z,8.20
2023-03-26T06:01:18.105Z,8.23
2023-03-26T06:04:12.580Z,8.27
2023-03-26T06:06:39.367Z,8.30
2023-03-26T06:09:06.615Z,8.30
2023-03-26T06:11:33.120Z,8.33
2023-03-26T06:14:00.603Z,8.40
2023-03-26T06:16:27.945Z,8.40
2023-03-26T06:18:56.703Z,8.49
2023-03-26T06:21:27.620Z,8.60
2023-03-26T06:23:54.518Z,8.56
2023-03-26T06:26:21.444Z,8.53
2023-03-26T06:28:48.221Z,8.50
2023-03-26T06:31:14.811Z,8.56
2023-03-26T06:33:41.326Z,8.59
2023-03-26T06:36:08.250Z,8.60
2023-03-26T06:38:34.887Z,8.60
2023-03-26T06:41:06.173Z,8.66
2023-03-26T06:43:33.855Z,8.70
2023-03-26T06:46:03.999Z,8.77
2023-03-26T06:48:30.862Z,8.82
2023-03-26T06:50:57.740Z,8.83
2023-03-26T06:53:24.214Z,8.89
2023-03-26T06:55:50.909Z,8.90
2023-03-26T06:58:17.367Z,8.99
2023-03-26T07:00:44.026Z,9.05
2023-03-26T07:03:11.405Z,9.16
2023-03-26T07:05:40.550Z,9.42
2023-03-26T07:08:06.958Z,9.76
2023-03-26T07:10:33.602Z,9.85
2023-03-26T07:13:00.024Z,9.96
2023-03-26T07:15:28.845Z,9.99
2023-03-26T07:17:56.353Z,9.91
2023-03-26T07:20:23.811Z,9.89
2023-03-26T07:23:20.556Z,9.87
2023-03-26T07:25:48.672Z,9.82
2023-03-26T07:28:25.799Z,9.84
2023-03-26T07:31:04.549Z,9.83
2023-03-26T07:33:38.811Z,9.95
2023-03-26T07:36:26.500Z,10.04
2023-03-26T07:39:30.790Z,10.07
2023-03-26T07:42:09.822Z,10.10
2023-03-26T07:45:03.106Z,10.19
2023-03-26T07:47:33.924Z,10.30
2023-03-26T07:50:00.918Z,10.57
2023-03-26T07:52:28.244Z,10.64
2023-03-26T07:54:55.759Z,10.74
2023-03-26T07:57:47.483Z,10.73
2023-03-26T08:00:22.148Z,10.73
2023-03-26T08:03:10.482Z,10.72
2023-03-26T08:05:47.048Z,10.62
2023-03-26T08:08:25.701Z,10.75
2023-03-26T08:11:14.586Z,10.91
2023-03-26T08:14:01.092Z,11.15
2023-03-26T08:16:36.454Z,11.24
2023-03-26T08:19:21.087Z,11.28
2023-03-26T08:22:06.904Z,11.25
2023-03-26T08:24:43.629Z,11.15
2023-03-26T08:27:21.452Z,11.13
2023-03-26T08:30:03.497Z,11.27
2023-03-26T08:34:20.991Z,11.59
2023-03-26T08:36:47.645Z,11.50
2023-03-26T08:39:14.212Z,11.37
2023-03-26T08:41:46.839Z,11.48
2023-03-26T08:44:32.075Z,11.49
2023-03-26T08:47:29.034Z,11.61
2023-03-26T08:50:07.909Z,12.15
2023-03-26T08:52:34.353Z,12.66
2023-03-26T08:55:19.440Z,13.23
2023-03-26T08:58:14.132Z,13.40
2023-03-26T09:00:41.130Z,13.26
2023-03-26T09:03:35.542Z,13.35
2023-03-26T09:06:31.764Z,13.65
2023-03-26T09:09:19.588Z,13.53
2023-03-26T09:12:14.189Z,13.65
2023-03-26T09:15:23.782Z,13.87
2023-03-26T09:17:54.438Z,14.00
2023-03-26T09:20:34.052Z,13.98
2023-03-26T09:23:16.048Z,14.05
2023-03-26T09:25:56.550Z,14.00
2023-03-26T09:28:23.236Z,13.96
2023-03-26T09:31:15.775Z,13.86
2023-03-26T09:34:00.289Z,13.56
2023-03-26T09:36:45.370Z,13.57
2023-03-26T09:39:52.191Z,13.47
2023-03-26T09:42:52.348Z,13.41
2023-03-26T09:45:22.578Z,13.52
2023-03-26T09:48:05.635Z,13.65
2023-03-26T09:50:59.821Z,14.60
2023-03-26T09:54:11.301Z,15.79
2023-03-26T09:57:15.096Z,16.26
2023-03-26T10:00:16.896Z,16.16
2023-03-26T10:03:02.212Z,15.78
2023-03-26T10:05:48.054Z,15.72
2023-03-26T10:08:31.719Z,15.91
2023-03-26T10:11:13.712Z,15.36
2023-03-26T10:13:54.044Z,15.35
2023-03-26T10:16:51.887Z,15.27
2023-03-26T10:19:37.815Z,15.01
2023-03-26T10:22:14.502Z,14.87
2023-03-26T10:25:05.096Z,14.48
2023-03-26T10:27:51.557Z,14.45
2023-03-26T10:30:31.622Z,14.20
2023-03-26T10:33:09.384Z,14.12
2023-03-26T10:35:52.770Z,13.97
2023-03-26T10:38:47.261Z,13.93
2023-03-26T10:41:23.493Z,14.02
2023-03-26T10:44:22.780Z,13.69
2023-03-26T10:47:16.769Z,13.73
2023-03-26T10:50:08.210Z,13.64
2023-03-26T10:52:39.696Z,13.50
2023-03-26T10:55:24.294Z,13.55
2023-03-26T10:58:13.360Z,13.44
2023-03-26T11:00:46.582Z,13.55
2023-03-26T11:03:43.725Z,13.53
2023-03-26T11:06:19.606Z,13.49
2023-03-26T11:09:04.691Z,13.27
2023-03-26T11:11:48.916Z,13.30
2023-03-26T11:14:47.803Z,13.37
2023-03-26T11:17:40.477Z,13.18
2023-03-26T11:20:25.306Z,13.17
2023-03-26T11:23:14.592Z,13.14
2023-03-26T11:25:50.908Z,13.09
2023-03-26T11:28:32.641Z,13.10
2023-03-26T11:31:04.767Z,13.08
2023-03-26T11:33:37.206Z,13.04
2023-03-26T11:36:08.825Z,13.01
2023-03-26T11:38:40.134Z,12.95
2023-03-26T11:41:23.070Z,12.95
2023-03-26T11:43:56.377Z,12.87
2023-03-26T11:46:25.352Z,12.89
2023-03-26T11:49:09.259Z,12.77
2023-03-26T11:51:37.017Z,12.73
2023-03-26T11:54:05.325Z,12.64
2023-03-26T11:57:04.558Z,12.40
2023-03-26T11:59:55.888Z,12.31
2023-03-26T12:02:37.825Z,12.36
2023-03-26T12:05:20.339Z,12.37
2023-03-26T12:07:53.593Z,12.53
2023-03-26T12:10:39.245Z,12.69
2023-03-26T12:13:37.237Z,12.67
2023-03-26T12:16:14.306Z,12.51
2023-03-26T12:18:43.804Z,12.50
2023-03-26T12:21:19.338Z,12.50
2023-03-26T12:23:56.844Z,12.32
2023-03-26T12:26:35.256Z,12.36
2023-03-26T12:29:09.663Z,12.36
2023-03-26T12:31:46.806Z,12.35
2023-03-26T12:34:16.825Z,12.40
2023-03-26T12:37:00.003Z,12.52
2023-03-26T12:40:09.079Z,12.52
2023-03-26T12:44:50.336Z,12.42
2023-03-26T12:45:23.895Z,12.34
2023-03-26T12:47:59.727Z,12.43
2023-03-26T12:50:44.930Z,12.48
2023-03-26T12:53:23.975Z,12.16
2023-03-26T12:56:01.232Z,12.05
2023-03-26T12:58:58.652Z,11.73
2023-03-26T13:01:37.306Z,11.76
2023-03-26T13:04:28.774Z,11.81
2023-03-26T13:07:04.395Z,11.75
2023-03-26T13:09:56.618Z,11.45
2023-03-26T13:12:46.187Z,11.22
2023-03-26T13:15:35.611Z,11.24
2023-03-26T13:18:21.577Z,11.16
2023-03-26T13:21:14.714Z,11.04
2023-03-26T13:23:53.515Z,10.79
2023-03-26T13:26:38.812Z,10.69
2023-03-26T13:29:23.815Z,10.68
2023-03-26T13:32:20.315Z,10.65
2023-03-26T13:35:18.120Z,10.54
2023-03-26T13:38:06.960Z,10.43
2023-03-26T13:40:46.561Z,10.35
2023-03-26T13:43:28.181Z,10.23
2023-03-26T13:46:28.736Z,10.05
2023-03-26T13:49:15.535Z,10.00
2023-03-26T13:51:48.454Z,10.00
2023-03-26T13:54:27.584Z,10.04
2023-03-26T13:57:05.483Z,10.08
2023-03-26T13:59:40.229Z,10.15
2023-03-26T14:02:18.154Z,10.19
2023-03-26T14:04:49.503Z,10.18
2023-03-26T14:07:24.759Z,10.07
2023-03-26T14:09:58.757Z,9.96
2023-03-26T14:12:51.440Z,9.99
2023-03-26T14:15:27.090Z,10.00
2023-03-26T14:18:03.521Z,9.86
2023-03-26T14:21:19.439Z,9.87
2023-03-26T14:23:51.924Z,9.82
2023-03-26T14:26:40.388Z,9.83
2023-03-26T14:29:28.095Z,9.81
2023-03-26T14:32:24.801Z,9.84
2023-03-26T14:35:26.003Z,9.95
2023-03-26T14:38:35.354Z,10.00
2023-03-26T14:41:24.992Z,10.02
2023-03-26T14:44:29.573Z,10.11
2023-03-26T14:47:20.535Z,10.07
2023-03-26T14:49:55.363Z,10.01
2023-03-26T14:52:31.550Z,9.94
2023-03-26T14:55:03.617Z,9.93
2023-03-26T14:57:52.467Z,10.00
2023-03-26T15:01:03.811Z,10.00
2023-03-26T15:03:51.202Z,9.99
2023-03-26T15:06:55.344Z,10.01
2023-03-26T15:09:49.004Z,10.03
2023-03-26T15:12:51.508Z,9.98
2023-03-26T15:15:36.309Z,9.93
2023-03-26T15:18:21.629Z,9.96
2023-03-26T15:21:18.967Z,9.95
2023-03-26T15:24:16.298Z,9.95
2023-03-26T15:27:01.648Z,9.86
2023-03-26T15:29:28.073Z,9.82
2023-03-26T15:32:16.255Z,9.69
2023-03-26T15:35:37.641Z,9.67
2023-03-26T15:38:42.453Z,9.52
2023-03-26T15:41:27.801Z,9.49
2023-03-26T15:44:22.830Z,9.35
2023-03-26T15:47:30.651Z,9.24
2023-03-26T15:50:15.631Z,9.24
2023-03-26T15:52:53.912Z,9.20
2023-03-26T15:55:53.692Z,9.18
2023-03-26T15:58:30.785Z,9.08
2023-03-26T16:01:25.449Z,8.97
2023-03-26T16:04:09.267Z,8.86
2023-03-26T16:06:41.586Z,8.84
2023-03-26T16:09:20.204Z,8.80
2023-03-26T16:11:54.813Z,8.84
2023-03-26T16:14:36.322Z,8.81
2023-03-26T16:17:06.493Z,8.87
2023-03-26T16:19:46.067Z,8.87
2023-03-26T16:22:42.826Z,8.91
2023-03-26T16:25:28.670Z,9.04
2023-03-26T16:28:10.681Z,9.11
2023-03-26T16:30:37.632Z,9.15
2023-03-26T16:33:19.377Z,9.16
2023-03-26T16:36:26.058Z,9.18
2023-03-26T16:39:19.781Z,9.09
2023-03-26T16:42:06.079Z,9.10
2023-03-26T16:44:41.127Z,9.06
2023-03-26T16:47:42.929Z,9.04
2023-03-26T16:50:33.051Z,8.99
2023-03-26T16:53:34.673Z,8.89
2023-03-26T16:56:15.660Z,8.96
2023-03-26T16:59:00.381Z,9.02
2023-03-26T17:01:27.373Z,8.97
2023-03-26T17:04:05.131Z,8.85
2023-03-26T17:06:45.692Z,8.83
2023-03-26T17:09:21.238Z,8.91
2023-03-26T17:11:59.864Z,8.88
2023-03-26T17:14:48.928Z,8.92
2023-03-26T17:17:37.432Z,8.83
2023-03-26T17:20:25.254Z,8.82
2023-03-26T17:23:09.240Z,8.81
2023-03-26T17:25:40.472Z,8.83
2023-03-26T17:28:28.274Z,8.85
2023-03-26T17:31:16.400Z,8.86
2023-03-26T17:33:43.280Z,8.82
2023-03-26T17:36:12.743Z,8.76
2023-03-26T17:38:39.219Z,8.77
2023-03-26T17:41:07.009Z,8.79
2023-03-26T17:43:50.756Z,8.76
2023-03-26T17:46:25.679Z,8.76
2023-03-26T17:49:00.964Z,8.71
2023-03-26T17:51:38.774Z,8.70
2023-03-26T17:58:07.673Z,8.65
2023-03-26T18:00:47.088Z,8.65
2023-03-26T18:03:34.149Z,8.70
2023-03-26T18:06:07.949Z,8.63
2023-03-26T18:08:50.677Z,8.67
2023-03-26T18:11:29.263Z,8.65
2023-03-26T18:14:01.938Z,8.64
2023-03-26T18:16:39.503Z,8.61
2023-03-26T18:19:22.619Z,8.58
2023-03-26T18:21:54.322Z,8.56
2023-03-26T18:24:32.789Z,8.60
2023-03-26T18:27:10.746Z,8.59
2023-03-26T18:29:44.694Z,8.55
2023-03-26T18:32:11.683Z,8.61
2023-03-26T18:34:45.956Z,8.61
2023-03-26T18:37:21.049Z,8.60
2023-03-26T18:39:58.979Z,8.49
2023-03-26T18:42:27.193Z,8.38
2023-03-26T18:44:54.699Z,8.37
2023-03-26T18:47:29.174Z,8.38
2023-03-26T18:49:57.525Z,8.47
2023-03-26T18:52:27.179Z,8.52
2023-03-26T18:54:54.660Z,8.56
2023-03-26T18:57:25.122Z,8.55
2023-03-26T18:59:54.329Z,8.61
2023-03-26T19:02:22.093Z,8.58
2023-03-26T19:04:50.817Z,8.59
2023-03-26T19:07:24.903Z,8.58
2023-03-26T19:09:56.285Z,8.58
2023-03-26T19:12:24.100Z,8.57
2023-03-26T19:15:02.654Z,8.50
2023-03-26T19:17:34.715Z,8.51
2023-03-26T19:20:01.610Z,8.54
2023-03-26T19:22:30.315Z,8.56
2023-03-26T19:25:02.163Z,8.58
2023-03-26T19:27:28.915Z,8.59
2023-03-26T19:29:55.438Z,8.57
2023-03-26T19:32:34.578Z,8.55
2023-03-26T19:35:03.996Z,8.56
2023-03-26T19:37:31.440Z,8.47
2023-03-26T19:40:30.133Z,8.34
2023-03-26T19:42:59.897Z,8.21
2023-03-26T19:45:26.995Z,8.09
2023-03-26T19:48:07.374Z,8.11
2023-03-26T19:50:52.608Z,8.07
2023-03-26T19:53:19.090Z,8.16
2023-03-26T19:56:11.405Z,8.00
2023-03-26T19:58:38.078Z,7.97
2023-03-26T20:01:04.751Z,7.94
2023-03-26T20:03:42.947Z,7.89
2023-03-26T20:06:14.972Z,7.86
2023-03-26T20:08:41.545Z,7.85
2023-03-26T20:11:16.594Z,7.77
2023-03-26T20:13:43.099Z,7.72
2023-03-26T20:16:25.751Z,7.74
2023-03-26T20:18:52.787Z,7.73
2023-03-26T20:21:19.513Z,7.70
2023-03-26T20:23:45.948Z,7.73
2023-03-26T20:26:16.576Z,7.73
2023-03-26T20:28:48.075Z,7.71
2023-03-26T20:31:22.016Z,7.69
2023-03-26T20:33:52.990Z,7.74
2023-03-26T20:36:34.287Z,7.81
2023-03-26T20:39:07.835Z,7.80
2023-03-26T20:41:35.643Z,7.78
2023-03-26T20:44:04.859Z,7.83
2023-03-26T20:46:31.953Z,7.73
2023-03-26T20:48:59.753Z,7.70
2023-03-26T20:51:28.188Z,7.72
2023-03-26T20:53:55.915Z,7.74
2023-03-26T20:56:22.691Z,7.75
2023-03-26T20:58:54.747Z,7.73
2023-03-26T21:01:27.757Z,7.60
2023-03-26T21:03:54.799Z,7.63
2023-03-26T21:06:21.302Z,7.61
2023-03-26T21:08:47.957Z,7.68
2023-03-26T21:11:26.506Z,7.74
2023-03-26T21:14:06.725Z,7.78
2023-03-26T21:16:33.669Z,7.83
2023-03-26T21:19:00.893Z,7.66
2023-03-26T21:21:39.799Z,7.70
2023-03-26T21:24:12.708Z,7.69
2023-03-26T21:26:56.243Z,7.69
2023-03-26T21:29:22.933Z,7.63
2023-03-26T21:31:51.091Z,7.60
2023-03-26T21:34:19.916Z,7.59
2023-03-26T21:36:47.039Z,7.53
2023-03-26T21:39:15.315Z,7.52
2023-03-26T21:41:46.966Z,7.50
2023-03-26T21:44:14.424Z,7.51
2023-03-26T21:46:45.476Z,7.53
2023-03-26T21:49:13.326Z,7.50
2023-03-26T21:51:40.854Z,7.32
2023-03-26T21:54:25.921Z,7.42
2023-03-26T21:57:29.058Z,7.30
2023-03-26T22:00:08.456Z,7.25
2023-03-26T22:02:47.064Z,7.21
2023-03-26T22:05:25.880Z,7.15
2023-03-26T22:08:02.863Z,7.02
2023-03-26T22:10:30.971Z,7.00
2023-03-26T22:12:58.445Z,6.95
2023-03-26T22:15:26.734Z,6.93
2023-03-26T22:17:56.000Z,7.03
2023-03-26T22:20:24.949Z,6.98
2023-03-26T22:22:53.310Z,6.95
2023-03-26T22:25:20.911Z,6.93
2023-03-26T22:27:49.860Z,6.91
2023-03-26T22:30:17.587Z,6.92
2023-03-26T22:32:44.909Z,6.91
2023-03-26T22:35:12.977Z,6.83
2023-03-26T22:37:40.534Z,6.88
2023-03-26T22:40:10.424Z,6.90
2023-03-26T22:42:37.202Z,6.78
2023-03-26T22:45:04.655Z,6.68
2023-03-26T22:47:33.660Z,6.65
2023-03-26T22:50:01.059Z,6.60
2023-03-26T22:52:28.318Z,6.65
2023-03-26T22:54:55.118Z,6.58
2023-03-26T22:57:22.849Z,6.60
2023-03-26T22:59:49.750Z,6.61
2023-03-26T23:02:17.990Z,6.64
2023-03-26T23:04:44.835Z,6.56
2023-03-26T23:07:11.823Z,6.51
2023-03-26T23:09:38.523Z,6.46
2023-03-26T23:12:05.485Z,6.30
2023-03-26T23:14:36.284Z,6.31
2023-03-26T23:17:02.981Z,6.26
2023-03-26T23:19:30.175Z,6.19
2023-03-26T23:21:57.592Z,6.12
2023-03-26T23:24:26.486Z,6.03
2023-03-26T23:26:53.403Z,5.93
2023-03-26T23:29:20.106Z,5.92
2023-03-26T23:31:46.975Z,5.95
2023-03-26T23:34:14.269Z,5.95
2023-03-26T23:36:41.934Z,5.86
2023-03-26T23:39:09.294Z,5.86
2023-03-26T23:41:36.892Z,5.87
2023-03-26T23:44:04.115Z,5.90
2023-03-26T23:46:33.121Z,5.95
2023-03-26T23:49:02.448Z,5.92
2023-03-26T23:51:32.744Z,5.95
2023-03-26T23:54:00.287Z,5.99
2023-03-26T23:56:30.376Z,6.00
2023-03-26T23:58:58.220Z,6.01
